sensor_id;sensor_type;location;lat;lon;timestamp;pressure;altitude;pressure_sealevel;temperature;humidity
10646;BME280;5371;49.782;9.932;2022-11-20T00:01:27;99225.34;;;1.16;100.00
10646;BME280;5371;49.782;9.932;2022-11-20T00:03:57;99216.88;;;1.12;100.00
10646;BME280;5371;49.782;9.932;2022-11-20T00:06:27;99215.75;;;1.21;100.00
10646;BME280;5371;49.782;9.932;2022-11-20T00:08:55;99219.19;;;1.21;100.00
10646;BME280;5371;49.782;9.932;2022-11-20T00:11:24;99213.88;;;0.96;100.00
10646;BME280;5371;49.782;9.932;2022-11-20T00:13:53;99204.44;;;0.97;100.00
10646;BME280;5371;49.782;9.932;2022-11-20T00:16:22;99217.22;;;1.00;100.00
10646;BME280;5371;49.782;9.932;2022-11-20T00:18:50;99218.03;;;1.00;100.00
10646;BME280;5371;49.782;9.932;2022-11-20T00:21:18;99223.34;;;0.96;100.00
10646;BME280;5371;49.782;9.932;2022-11-20T00:23:47;99213.16;;;0.91;100.00
10646;BME280;5371;49.782;9.932;2022-11-20T00:26:16;99226.16;;;0.87;100.00
10646;BME280;5371;49.782;9.932;2022-11-20T00:28:48;99224.00;;;1.02;100.00
10646;BME280;5371;49.782;9.932;2022-11-20T00:31:16;99220.69;;;0.99;100.00
10646;BME280;5371;49.782;9.932;2022-11-20T00:33:43;99223.28;;;0.97;100.00
10646;BME280;5371;49.782;9.932;2022-11-20T00:36:12;99218.28;;;0.91;100.00
10646;BME280;5371;49.782;9.932;2022-11-20T00:38:39;99217.38;;;0.94;100.00
10646;BME280;5371;49.782;9.932;2022-11-20T00:41:09;99201.47;;;1.10;100.00
10646;BME280;5371;49.782;9.932;2022-11-20T00:43:37;99196.53;;;1.03;100.00
10646;BME280;5371;49.782;9.932;2022-11-20T00:46:05;99195.97;;;0.92;100.00
10646;BME280;5371;49.782;9.932;2022-11-20T00:48:32;99206.41;;;0.87;100.00
10646;BME280;5371;49.782;9.932;2022-11-20T00:50:59;99212.13;;;0.98;100.00
10646;BME280;5371;49.782;9.932;2022-11-20T00:53:27;99216.88;;;0.81;100.00
10646;BME280;5371;49.782;9.932;2022-11-20T00:55:55;99211.53;;;0.89;100.00
10646;BME280;5371;49.782;9.932;2022-11-20T00:58:25;99213.41;;;0.82;100.00
10646;BME280;5371;49.782;9.932;2022-11-20T01:01:00;99206.53;;;0.83;100.00
10646;BME280;5371;49.782;9.932;2022-11-20T01:03:27;99205.25;;;0.99;100.00
10646;BME280;5371;49.782;9.932;2022-11-20T01:05:54;99217.47;;;0.91;100.00
10646;BME280;5371;49.782;9.932;2022-11-20T01:08:29;99231.50;;;0.79;100.00
10646;BME280;5371;49.782;9.932;2022-11-20T01:10:59;99202.59;;;1.00;100.00
10646;BME280;5371;49.782;9.932;2022-11-20T01:13:27;99203.28;;;1.07;100.00
10646;BME280;5371;49.782;9.932;2022-11-20T01:16:04;99207.41;;;1.12;100.00
10646;BME280;5371;49.782;9.932;2022-11-20T01:18:31;99214.28;;;1.12;100.00
10646;BME280;5371;49.782;9.932;2022-11-20T01:21:01;99213.28;;;1.18;100.00
10646;BME280;5371;49.782;9.932;2022-11-20T01:23:30;99214.25;;;1.13;100.00
10646;BME280;5371;49.782;9.932;2022-11-20T01:25:59;99215.94;;;1.15;100.00
10646;BME280;5371;49.782;9.932;2022-11-20T01:28:28;99208.19;;;1.16;100.00
10646;BME280;5371;49.782;9.932;2022-11-20T01:30:55;99219.47;;;1.10;100.00
10646;BME280;5371;49.782;9.932;2022-11-20T01:33:22;99214.44;;;1.07;100.00
10646;BME280;5371;49.782;9.932;2022-11-20T01:35:49;99224.81;;;1.04;100.00
10646;BME280;5371;49.782;9.932;2022-11-20T01:38:16;99219.47;;;1.10;100.00
10646;BME280;5371;49.782;9.932;2022-11-20T01:40:43;99214.34;;;1.10;100.00
10646;BME280;5371;49.782;9.932;2022-11-20T01:43:14;99212.50;;;1.16;100.00
10646;BME280;5371;49.782;9.932;2022-11-20T01:46:05;99211.66;;;1.15;100.00
10646;BME280;5371;49.782;9.932;2022-11-20T01:48:37;99201.81;;;0.98;100.00
10646;BME280;5371;49.782;9.932;2022-11-20T01:51:07;99199.28;;;0.97;100.00
10646;BME280;5371;49.782;9.932;2022-11-20T01:53:39;99188.38;;;0.89;100.00
10646;BME280;5371;49.782;9.932;2022-11-20T01:56:09;99187.38;;;0.93;100.00
10646;BME280;5371;49.782;9.932;2022-11-20T01:58:45;99187.66;;;0.82;100.00
10646;BME280;5371;49.782;9.932;2022-11-20T02:01:15;99199.56;;;0.86;100.00
10646;BME280;5371;49.782;9.932;2022-11-20T02:03:43;99204.72;;;0.86;100.00
10646;BME280;5371;49.782;9.932;2022-11-20T02:06:14;99201.81;;;0.98;100.00
10646;BME280;5371;49.782;9.932;2022-11-20T02:08:43;99198.25;;;1.02;100.00
10646;BME280;5371;49.782;9.932;2022-11-20T02:11:13;99192.31;;;1.00;100.00
10646;BME280;5371;49.782;9.932;2022-11-20T02:13:40;99197.72;;;0.91;100.00
10646;BME280;5371;49.782;9.932;2022-11-20T02:16:16;99198.50;;;0.93;100.00
10646;BME280;5371;49.782;9.932;2022-11-20T02:18:46;99200.84;;;1.02;100.00
10646;BME280;5371;49.782;9.932;2022-11-20T02:21:21;99203.38;;;1.04;100.00
10646;BME280;5371;49.782;9.932;2022-11-20T02:24:10;99200.72;;;1.07;100.00
10646;BME280;5371;49.782;9.932;2022-11-20T02:26:46;99196.38;;;1.09;100.00
10646;BME280;5371;49.782;9.932;2022-11-20T02:29:16;99199.91;;;1.05;100.00
10646;BME280;5371;49.782;9.932;2022-11-20T02:31:46;99194.72;;;1.06;100.00
10646;BME280;5371;49.782;9.932;2022-11-20T02:34:13;99196.72;;;0.97;100.00
10646;BME280;5371;49.782;9.932;2022-11-20T02:36:41;99203.69;;;0.92;100.00
10646;BME280;5371;49.782;9.932;2022-11-20T02:39:11;99201.84;;;0.97;100.00
10646;BME280;5371;49.782;9.932;2022-11-20T02:41:42;99204.53;;;0.92;100.00
10646;BME280;5371;49.782;9.932;2022-11-20T02:44:09;99195.09;;;0.93;100.00
10646;BME280;5371;49.782;9.932;2022-11-20T02:46:36;99190.72;;;0.96;100.00
10646;BME280;5371;49.782;9.932;2022-11-20T02:49:03;99189.28;;;0.86;100.00
10646;BME280;5371;49.782;9.932;2022-11-20T02:51:31;99187.41;;;0.91;100.00
10646;BME280;5371;49.782;9.932;2022-11-20T02:53:59;99194.25;;;0.92;100.00
10646;BME280;5371;49.782;9.932;2022-11-20T02:56:27;99185.75;;;0.90;100.00
10646;BME280;5371;49.782;9.932;2022-11-20T02:58:54;99183.47;;;0.80;100.00
10646;BME280;5371;49.782;9.932;2022-11-20T03:01:21;99189.72;;;0.71;100.00
10646;BME280;5371;49.782;9.932;2022-11-20T03:03:48;99193.78;;;0.78;100.00
10646;BME280;5371;49.782;9.932;2022-11-20T03:06:15;99196.97;;;0.88;100.00
10646;BME280;5371;49.782;9.932;2022-11-20T03:08:42;99182.16;;;0.96;100.00
10646;BME280;5371;49.782;9.932;2022-11-20T03:11:09;99182.19;;;0.94;100.00
10646;BME280;5371;49.782;9.932;2022-11-20T03:13:38;99191.09;;;0.83;100.00
10646;BME280;5371;49.782;9.932;2022-11-20T03:16:10;99190.88;;;0.59;100.00
10646;BME280;5371;49.782;9.932;2022-11-20T03:18:38;99183.00;;;0.64;100.00
10646;BME280;5371;49.782;9.932;2022-11-20T03:21:05;99181.19;;;0.69;100.00
10646;BME280;5371;49.782;9.932;2022-11-20T03:23:32;99178.59;;;0.69;100.00
10646;BME280;5371;49.782;9.932;2022-11-20T03:26:13;99171.84;;;0.65;100.00
10646;BME280;5371;49.782;9.932;2022-11-20T03:28:46;99170.97;;;0.66;100.00
10646;BME280;5371;49.782;9.932;2022-11-20T03:31:15;99176.03;;;0.69;100.00
10646;BME280;5371;49.782;9.932;2022-11-20T03:33:42;99174.38;;;0.66;100.00
10646;BME280;5371;49.782;9.932;2022-11-20T03:36:11;99173.47;;;0.69;100.00
10646;BME280;5371;49.782;9.932;2022-11-20T03:38:39;99166.66;;;0.66;100.00
10646;BME280;5371;49.782;9.932;2022-11-20T03:41:08;99175.00;;;0.74;100.00
10646;BME280;5371;49.782;9.932;2022-11-20T03:43:35;99170.88;;;0.69;100.00
10646;BME280;5371;49.782;9.932;2022-11-20T03:46:04;99176.06;;;0.67;100.00
10646;BME280;5371;49.782;9.932;2022-11-20T03:48:32;99171.78;;;0.68;100.00
10646;BME280;5371;49.782;9.932;2022-11-20T03:51:09;99166.69;;;0.65;100.00
10646;BME280;5371;49.782;9.932;2022-11-20T03:53:36;99163.09;;;0.72;100.00
10646;BME280;5371;49.782;9.932;2022-11-20T03:56:03;99169.97;;;0.71;100.00
10646;BME280;5371;49.782;9.932;2022-11-20T03:58:32;99163.97;;;0.71;100.00
10646;BME280;5371;49.782;9.932;2022-11-20T04:01:05;99163.34;;;0.63;100.00
10646;BME280;5371;49.782;9.932;2022-11-20T04:03:33;99169.13;;;0.71;100.00
10646;BME280;5371;49.782;9.932;2022-11-20T04:06:02;99169.97;;;0.71;100.00
10646;BME280;5371;49.782;9.932;2022-11-20T04:08:29;99163.88;;;0.74;100.00
10646;BME280;5371;49.782;9.932;2022-11-20T04:10:56;99163.03;;;0.73;100.00
10646;BME280;5371;49.782;9.932;2022-11-20T04:13:23;99156.34;;;0.68;100.00
10646;BME280;5371;49.782;9.932;2022-11-20T04:15:50;99156.25;;;0.71;100.00
10646;BME280;5371;49.782;9.932;2022-11-20T04:18:19;99150.38;;;0.66;100.00
10646;BME280;5371;49.782;9.932;2022-11-20T04:20:46;99155.63;;;0.63;100.00
10646;BME280;5371;49.782;9.932;2022-11-20T04:23:13;99153.94;;;0.62;100.00
10646;BME280;5371;49.782;9.932;2022-11-20T04:25:40;99145.66;;;0.51;100.00
10646;BME280;5371;49.782;9.932;2022-11-20T04:28:07;99155.41;;;0.38;100.00
10646;BME280;5371;49.782;9.932;2022-11-20T04:30:34;99147.84;;;0.33;100.00
10646;BME280;5371;49.782;9.932;2022-11-20T04:33:00;99143.81;;;0.56;100.00
10646;BME280;5371;49.782;9.932;2022-11-20T04:35:29;99140.59;;;0.48;100.00
10646;BME280;5371;49.782;9.932;2022-11-20T04:37:55;99133.69;;;0.50;100.00
10646;BME280;5371;49.782;9.932;2022-11-20T04:40:22;99131.25;;;0.45;100.00
10646;BME280;5371;49.782;9.932;2022-11-20T04:42:49;99136.81;;;0.28;100.00
10646;BME280;5371;49.782;9.932;2022-11-20T04:45:16;99140.25;;;0.27;100.00
10646;BME280;5371;49.782;9.932;2022-11-20T04:47:43;99139.56;;;0.22;100.00
10646;BME280;5371;49.782;9.932;2022-11-20T04:50:10;99128.50;;;0.19;100.00
10646;BME280;5371;49.782;9.932;2022-11-20T04:52:38;99129.19;;;0.25;100.00
10646;BME280;5371;49.782;9.932;2022-11-20T04:55:06;99131.81;;;0.24;100.00
10646;BME280;5371;49.782;9.932;2022-11-20T04:57:33;99134.41;;;0.22;100.00
10646;BME280;5371;49.782;9.932;2022-11-20T05:00:00;99142.28;;;0.16;100.00
10646;BME280;5371;49.782;9.932;2022-11-20T05:02:27;99134.63;;;0.15;100.00
10646;BME280;5371;49.782;9.932;2022-11-20T05:04:54;99132.47;;;0.30;100.00
10646;BME280;5371;49.782;9.932;2022-11-20T05:07:21;99138.53;;;0.28;100.00
10646;BME280;5371;49.782;9.932;2022-11-20T05:09:49;99135.13;;;0.27;100.00
10646;BME280;5371;49.782;9.932;2022-11-20T05:12:16;99128.22;;;0.29;100.00
10646;BME280;5371;49.782;9.932;2022-11-20T05:14:43;99126.88;;;0.47;100.00
10646;BME280;5371;49.782;9.932;2022-11-20T05:17:10;99128.84;;;0.37;100.00
10646;BME280;5371;49.782;9.932;2022-11-20T05:19:37;99125.38;;;0.40;100.00
10646;BME280;5371;49.782;9.932;2022-11-20T05:22:04;99122.75;;;0.42;100.00
10646;BME280;5371;49.782;9.932;2022-11-20T05:24:31;99121.50;;;0.25;100.00
10646;BME280;5371;49.782;9.932;2022-11-20T05:27:00;99121.34;;;0.30;100.00
10646;BME280;5371;49.782;9.932;2022-11-20T05:29:27;99119.34;;;0.41;100.00
10646;BME280;5371;49.782;9.932;2022-11-20T05:31:54;99112.34;;;0.46;100.00
10646;BME280;5371;49.782;9.932;2022-11-20T05:34:20;99115.72;;;0.48;100.00
10646;BME280;5371;49.782;9.932;2022-11-20T05:36:47;99121.28;;;0.64;100.00
10646;BME280;5371;49.782;9.932;2022-11-20T05:39:14;99124.34;;;0.78;100.00
10646;BME280;5371;49.782;9.932;2022-11-20T05:41:41;99131.06;;;0.82;100.00
10646;BME280;5371;49.782;9.932;2022-11-20T05:44:13;99138.84;;;0.81;100.00
10646;BME280;5371;49.782;9.932;2022-11-20T05:46:39;99132.88;;;0.80;100.00
10646;BME280;5371;49.782;9.932;2022-11-20T05:49:06;99134.56;;;0.81;100.00
10646;BME280;5371;49.782;9.932;2022-11-20T05:51:33;99131.72;;;0.90;100.00
10646;BME280;5371;49.782;9.932;2022-11-20T05:54:00;99117.75;;;0.99;100.00
10646;BME280;5371;49.782;9.932;2022-11-20T05:56:27;99122.81;;;1.00;100.00
10646;BME280;5371;49.782;9.932;2022-11-20T05:58:54;99115.69;;;1.10;100.00
10646;BME280;5371;49.782;9.932;2022-11-20T06:01:24;99123.56;;;1.05;100.00
10646;BME280;5371;49.782;9.932;2022-11-20T06:03:52;99120.09;;;1.06;100.00
10646;BME280;5371;49.782;9.932;2022-11-20T06:06:20;99124.97;;;1.16;100.00
10646;BME280;5371;49.782;9.932;2022-11-20T06:08:47;99127.84;;;1.05;100.00
10646;BME280;5371;49.782;9.932;2022-11-20T06:11:15;99131.50;;;0.98;100.00
10646;BME280;5371;49.782;9.932;2022-11-20T06:13:42;99123.09;;;0.91;100.00
10646;BME280;5371;49.782;9.932;2022-11-20T06:16:10;99124.25;;;0.81;100.00
10646;BME280;5371;49.782;9.932;2022-11-20T06:18:39;99117.91;;;0.93;100.00
10646;BME280;5371;49.782;9.932;2022-11-20T06:21:07;99115.44;;;0.90;100.00
10646;BME280;5371;49.782;9.932;2022-11-20T06:23:35;99117.94;;;0.91;100.00
10646;BME280;5371;49.782;9.932;2022-11-20T06:26:04;99120.22;;;1.02;100.00
10646;BME280;5371;49.782;9.932;2022-11-20T06:28:31;99121.19;;;0.98;100.00
10646;BME280;5371;49.782;9.932;2022-11-20T06:30:58;99116.03;;;0.99;100.00
10646;BME280;5371;49.782;9.932;2022-11-20T06:33:25;99120.47;;;0.93;100.00
10646;BME280;5371;49.782;9.932;2022-11-20T06:35:56;99121.28;;;0.95;100.00
10646;BME280;5371;49.782;9.932;2022-11-20T06:38:23;99125.41;;;1.00;100.00
10646;BME280;5371;49.782;9.932;2022-11-20T06:40:50;99127.31;;;0.94;100.00
10646;BME280;5371;49.782;9.932;2022-11-20T06:43:17;99120.50;;;0.91;100.00
10646;BME280;5371;49.782;9.932;2022-11-20T06:45:44;99116.75;;;1.03;100.00
10646;BME280;5371;49.782;9.932;2022-11-20T06:48:11;99122.66;;;1.06;100.00
10646;BME280;5371;49.782;9.932;2022-11-20T06:50:38;99123.19;;;1.18;100.00
10646;BME280;5371;49.782;9.932;2022-11-20T06:53:06;99123.09;;;1.21;100.00
10646;BME280;5371;49.782;9.932;2022-11-20T06:55:33;99121.41;;;1.20;100.00
10646;BME280;5371;49.782;9.932;2022-11-20T06:58:00;99123.09;;;1.21;100.00
10646;BME280;5371;49.782;9.932;2022-11-20T07:00:27;99130.81;;;1.21;100.00
10646;BME280;5371;49.782;9.932;2022-11-20T07:02:54;99134.47;;;1.13;100.00
10646;BME280;5371;49.782;9.932;2022-11-20T07:05:21;99129.34;;;1.12;100.00
10646;BME280;5371;49.782;9.932;2022-11-20T07:07:48;99134.69;;;1.06;100.00
10646;BME280;5371;49.782;9.932;2022-11-20T07:10:16;99130.91;;;1.18;100.00
10646;BME280;5371;49.782;9.932;2022-11-20T07:12:49;99126.47;;;1.23;100.00
10646;BME280;5371;49.782;9.932;2022-11-20T07:15:17;99128.44;;;1.15;100.00
10646;BME280;5371;49.782;9.932;2022-11-20T07:17:44;99133.56;;;1.15;100.00
10646;BME280;5371;49.782;9.932;2022-11-20T07:20:11;99128.50;;;1.11;100.00
10646;BME280;5371;49.782;9.932;2022-11-20T07:22:39;99127.88;;;1.03;100.00
10646;BME280;5371;49.782;9.932;2022-11-20T07:25:06;99124.78;;;1.22;100.00
10646;BME280;5371;49.782;9.932;2022-11-20T07:27:35;99125.69;;;1.19;100.00
10646;BME280;5371;49.782;9.932;2022-11-20T07:30:02;99128.66;;;1.07;100.00
10646;BME280;5371;49.782;9.932;2022-11-20T07:32:30;99119.31;;;1.03;100.00
10646;BME280;5371;49.782;9.932;2022-11-20T07:34:56;99119.97;;;1.09;100.00
10646;BME280;5371;49.782;9.932;2022-11-20T07:37:23;99130.97;;;1.16;100.00
10646;BME280;5371;49.782;9.932;2022-11-20T07:39:50;99125.66;;;1.21;100.00
10646;BME280;5371;49.782;9.932;2022-11-20T07:42:17;99132.47;;;1.23;100.00
10646;BME280;5371;49.782;9.932;2022-11-20T07:44:46;99127.16;;;1.28;100.00
10646;BME280;5371;49.782;9.932;2022-11-20T07:47:13;99130.22;;;1.40;100.00
10646;BME280;5371;49.782;9.932;2022-11-20T07:49:40;99121.13;;;1.29;100.00
10646;BME280;5371;49.782;9.932;2022-11-20T07:52:07;99115.91;;;1.32;100.00
10646;BME280;5371;49.782;9.932;2022-11-20T07:54:34;99121.94;;;1.31;100.00
10646;BME280;5371;49.782;9.932;2022-11-20T07:57:01;99122.38;;;1.45;100.00
10646;BME280;5371;49.782;9.932;2022-11-20T07:59:28;99126.56;;;1.47;100.00
10646;BME280;5371;49.782;9.932;2022-11-20T08:01:57;99127.03;;;1.60;100.00
10646;BME280;5371;49.782;9.932;2022-11-20T08:04:24;99126.28;;;1.57;100.00
10646;BME280;5371;49.782;9.932;2022-11-20T08:06:52;99135.72;;;1.56;100.00
10646;BME280;5371;49.782;9.932;2022-11-20T08:09:19;99132.50;;;1.49;100.00
10646;BME280;5371;49.782;9.932;2022-11-20T08:11:46;99139.97;;;1.59;100.00
10646;BME280;5371;49.782;9.932;2022-11-20T08:14:30;99154.66;;;1.55;100.00
10646;BME280;5371;49.782;9.932;2022-11-20T08:16:58;99150.34;;;1.56;100.00
10646;BME280;5371;49.782;9.932;2022-11-20T08:19:25;99145.38;;;1.49;100.00
10646;BME280;5371;49.782;9.932;2022-11-20T08:21:52;99155.47;;;1.28;100.00
10646;BME280;5371;49.782;9.932;2022-11-20T08:24:19;99144.19;;;1.33;100.00
10646;BME280;5371;49.782;9.932;2022-11-20T08:26:47;99142.97;;;1.45;100.00
10646;BME280;5371;49.782;9.932;2022-11-20T08:29:14;99142.63;;;1.56;100.00
10646;BME280;5371;49.782;9.932;2022-11-20T08:31:41;99146.09;;;1.55;100.00
10646;BME280;5371;49.782;9.932;2022-11-20T08:34:10;99142.50;;;1.60;100.00
10646;BME280;5371;49.782;9.932;2022-11-20T08:36:37;99139.97;;;1.59;100.00
10646;BME280;5371;49.782;9.932;2022-11-20T08:39:04;99144.50;;;1.78;100.00
10646;BME280;5371;49.782;9.932;2022-11-20T08:41:31;99143.53;;;1.55;100.00
10646;BME280;5371;49.782;9.932;2022-11-20T08:44:00;99137.75;;;1.46;100.00
10646;BME280;5371;49.782;9.932;2022-11-20T08:46:32;99132.19;;;1.60;100.00
10646;BME280;5371;49.782;9.932;2022-11-20T08:49:00;99131.97;;;1.66;100.00
10646;BME280;5371;49.782;9.932;2022-11-20T08:51:28;99139.03;;;1.87;100.00
10646;BME280;5371;49.782;9.932;2022-11-20T08:53:55;99137.69;;;1.48;100.00
10646;BME280;5371;49.782;9.932;2022-11-20T08:56:22;99133.50;;;1.45;100.00
10646;BME280;5371;49.782;9.932;2022-11-20T08:58:50;99127.91;;;1.59;100.00
10646;BME280;5371;49.782;9.932;2022-11-20T09:01:18;99126.44;;;1.78;100.00
10646;BME280;5371;49.782;9.932;2022-11-20T09:03:45;99122.19;;;1.77;100.00
10646;BME280;5371;49.782;9.932;2022-11-20T09:06:13;99117.72;;;1.82;100.00
10646;BME280;5371;49.782;9.932;2022-11-20T09:08:41;99119.16;;;1.65;100.00
10646;BME280;5371;49.782;9.932;2022-11-20T09:11:09;99122.56;;;1.65;100.00
10646;BME280;5371;49.782;9.932;2022-11-20T09:13:36;99127.72;;;1.65;100.00
10646;BME280;5371;49.782;9.932;2022-11-20T09:16:05;99131.97;;;1.66;100.00
10646;BME280;5371;49.782;9.932;2022-11-20T09:18:34;99135.56;;;1.62;100.00
10646;BME280;5371;49.782;9.932;2022-11-20T09:21:04;99131.91;;;1.41;100.00
10646;BME280;5371;49.782;9.932;2022-11-20T09:23:34;99144.75;;;1.43;100.00
10646;BME280;5371;49.782;9.932;2022-11-20T09:26:03;99134.84;;;1.57;100.00
10646;BME280;5371;49.782;9.932;2022-11-20T09:28:31;99135.66;;;1.59;100.00
10646;BME280;5371;49.782;9.932;2022-11-20T09:30:58;99138.63;;;1.73;100.00
10646;BME280;5371;49.782;9.932;2022-11-20T09:33:25;99143.56;;;2.07;100.00
10646;BME280;5371;49.782;9.932;2022-11-20T09:35:52;99129.75;;;2.35;100.00
10646;BME280;5371;49.782;9.932;2022-11-20T09:38:19;99149.84;;;2.50;100.00
10646;BME280;5371;49.782;9.932;2022-11-20T09:40:53;99154.56;;;2.37;100.00
10646;BME280;5371;49.782;9.932;2022-11-20T09:43:32;99152.59;;;2.19;100.00
10646;BME280;5371;49.782;9.932;2022-11-20T09:46:12;99158.19;;;2.32;100.00
10646;BME280;5371;49.782;9.932;2022-11-20T09:49:06;99163.06;;;2.41;100.00
10646;BME280;5371;49.782;9.932;2022-11-20T09:51:42;99162.31;;;2.37;100.00
10646;BME280;5371;49.782;9.932;2022-11-20T09:54:16;99163.69;;;2.47;100.00
10646;BME280;5371;49.782;9.932;2022-11-20T09:56:46;99159.69;;;2.63;100.00
10646;BME280;5371;49.782;9.932;2022-11-20T09:59:29;99164.31;;;2.79;100.00
10646;BME280;5371;49.782;9.932;2022-11-20T10:01:59;99165.88;;;2.83;100.00
10646;BME280;5371;49.782;9.932;2022-11-20T10:04:28;99157.47;;;3.01;100.00
10646;BME280;5371;49.782;9.932;2022-11-20T10:07:02;99161.25;;;3.16;100.00
10646;BME280;5371;49.782;9.932;2022-11-20T10:09:34;99151.28;;;3.28;100.00
10646;BME280;5371;49.782;9.932;2022-11-20T10:12:12;99163.50;;;3.47;100.00
10646;BME280;5371;49.782;9.932;2022-11-20T10:14:54;99159.56;;;3.60;100.00
10646;BME280;5371;49.782;9.932;2022-11-20T10:17:37;99143.13;;;3.39;100.00
10646;BME280;5371;49.782;9.932;2022-11-20T10:20:16;99142.03;;;3.23;100.00
10646;BME280;5371;49.782;9.932;2022-11-20T10:23:04;99137.00;;;3.85;100.00
10646;BME280;5371;49.782;9.932;2022-11-20T10:25:39;99132.16;;;3.99;100.00
10646;BME280;5371;49.782;9.932;2022-11-20T10:28:19;99130.28;;;4.23;100.00
10646;BME280;5371;49.782;9.932;2022-11-20T10:30:56;99123.75;;;4.35;100.00
10646;BME280;5371;49.782;9.932;2022-11-20T10:33:27;99122.53;;;5.57;100.00
10646;BME280;5371;49.782;9.932;2022-11-20T10:36:05;99127.59;;;5.60;100.00
10646;BME280;5371;49.782;9.932;2022-11-20T10:38:40;99118.56;;;5.13;100.00
10646;BME280;5371;49.782;9.932;2022-11-20T10:41:16;99115.34;;;4.89;100.00
10646;BME280;5371;49.782;9.932;2022-11-20T10:44:00;99118.00;;;5.44;100.00
10646;BME280;5371;49.782;9.932;2022-11-20T10:46:36;99122.59;;;5.56;100.00
10646;BME280;5371;49.782;9.932;2022-11-20T10:49:23;99124.53;;;5.15;100.00
10646;BME280;5371;49.782;9.932;2022-11-20T10:51:59;99113.91;;;5.57;100.00
10646;BME280;5371;49.782;9.932;2022-11-20T10:54:35;99115.53;;;4.84;100.00
10646;BME280;5371;49.782;9.932;2022-11-20T10:57:10;99119.31;;;4.77;100.00
10646;BME280;5371;49.782;9.932;2022-11-20T10:59:50;99112.31;;;4.79;100.00
10646;BME280;5371;49.782;9.932;2022-11-20T11:02:31;99108.56;;;4.66;100.00
10646;BME280;5371;49.782;9.932;2022-11-20T11:04:59;99111.06;;;4.49;100.00
10646;BME280;5371;49.782;9.932;2022-11-20T11:07:35;99100.31;;;4.58;100.00
10646;BME280;5371;49.782;9.932;2022-11-20T11:10:14;99108.31;;;4.72;100.00
10646;BME280;5371;49.782;9.932;2022-11-20T11:12:43;99096.94;;;4.56;100.00
10646;BME280;5371;49.782;9.932;2022-11-20T11:15:14;99104.03;;;4.92;100.00
10646;BME280;5371;49.782;9.932;2022-11-20T11:17:47;99099.66;;;4.73;100.00
10646;BME280;5371;49.782;9.932;2022-11-20T11:20:17;99093.84;;;4.48;100.00
10646;BME280;5371;49.782;9.932;2022-11-20T11:22:47;99086.06;;;4.68;100.00
10646;BME280;5371;49.782;9.932;2022-11-20T11:25:29;99087.09;;;4.25;100.00
10646;BME280;5371;49.782;9.932;2022-11-20T11:28:00;99090.47;;;4.27;100.00
10646;BME280;5371;49.782;9.932;2022-11-20T11:30:28;99089.97;;;3.97;100.00
10646;BME280;5371;49.782;9.932;2022-11-20T11:33:06;99092.69;;;3.94;100.00
10646;BME280;5371;49.782;9.932;2022-11-20T11:35:44;99084.59;;;4.02;100.00
10646;BME280;5371;49.782;9.932;2022-11-20T11:38:14;99082.63;;;4.08;100.00
10646;BME280;5371;49.782;9.932;2022-11-20T11:40:43;99080.44;;;3.99;100.00
10646;BME280;5371;49.782;9.932;2022-11-20T11:43:18;99077.91;;;4.18;100.00
10646;BME280;5371;49.782;9.932;2022-11-20T11:46:14;99079.47;;;4.61;100.00
10646;BME280;5371;49.782;9.932;2022-11-20T11:48:59;99080.44;;;4.59;100.00
10646;BME280;5371;49.782;9.932;2022-11-20T11:51:32;99076.47;;;4.31;100.00
10646;BME280;5371;49.782;9.932;2022-11-20T11:54:01;99073.31;;;4.25;100.00
10646;BME280;5371;49.782;9.932;2022-11-20T11:56:33;99076.22;;;4.17;100.00
10646;BME280;5371;49.782;9.932;2022-11-20T11:59:04;99076.06;;;4.20;100.00
10646;BME280;5371;49.782;9.932;2022-11-20T12:01:37;99071.41;;;4.28;100.00
10646;BME280;5371;49.782;9.932;2022-11-20T12:04:14;99068.97;;;4.25;100.00
10646;BME280;5371;49.782;9.932;2022-11-20T12:06:45;99060.38;;;4.25;100.00
10646;BME280;5371;49.782;9.932;2022-11-20T12:09:14;99065.56;;;4.25;100.00
10646;BME280;5371;49.782;9.932;2022-11-20T12:11:46;99064.59;;;4.27;100.00
10646;BME280;5371;49.782;9.932;2022-11-20T12:14:19;99059.06;;;4.35;100.00
10646;BME280;5371;49.782;9.932;2022-11-20T12:16:50;99055.09;;;4.28;100.00
10646;BME280;5371;49.782;9.932;2022-11-20T12:19:19;99066.69;;;4.38;100.00
10646;BME280;5371;49.782;9.932;2022-11-20T12:21:54;99061.00;;;4.30;100.00
10646;BME280;5371;49.782;9.932;2022-11-20T12:24:46;99051.66;;;4.07;100.00
10646;BME280;5371;49.782;9.932;2022-11-20T12:27:32;99063.88;;;4.03;100.00
10646;BME280;5371;49.782;9.932;2022-11-20T12:30:07;99057.91;;;4.01;100.00
10646;BME280;5371;49.782;9.932;2022-11-20T12:32:52;99055.06;;;3.87;100.00
10646;BME280;5371;49.782;9.932;2022-11-20T12:35:32;99063.00;;;3.83;100.00
10646;BME280;5371;49.782;9.932;2022-11-20T12:38:21;99059.19;;;3.71;100.00
10646;BME280;5371;49.782;9.932;2022-11-20T12:40:58;99057.13;;;3.79;100.00
10646;BME280;5371;49.782;9.932;2022-11-20T12:43:32;99058.03;;;3.78;100.00
10646;BME280;5371;49.782;9.932;2022-11-20T12:46:22;99052.81;;;4.00;100.00
10646;BME280;5371;49.782;9.932;2022-11-20T12:49:14;99051.22;;;4.18;100.00
10646;BME280;5371;49.782;9.932;2022-11-20T12:51:55;99057.28;;;4.17;100.00
10646;BME280;5371;49.782;9.932;2022-11-20T12:54:45;99053.13;;;4.33;100.00
10646;BME280;5371;49.782;9.932;2022-11-20T12:57:22;99055.31;;;4.42;100.00
10646;BME280;5371;49.782;9.932;2022-11-20T13:05:52;99043.91;;;4.27;100.00
10646;BME280;5371;49.782;9.932;2022-11-20T13:08:25;99043.53;;;4.55;100.00
10646;BME280;5371;49.782;9.932;2022-11-20T13:10:59;99037.22;;;4.61;100.00
10646;BME280;5371;49.782;9.932;2022-11-20T13:13:35;99049.50;;;4.56;100.00
10646;BME280;5371;49.782;9.932;2022-11-20T13:16:10;99053.72;;;4.58;100.00
10646;BME280;5371;49.782;9.932;2022-11-20T13:18:41;99050.69;;;4.48;100.00
10646;BME280;5371;49.782;9.932;2022-11-20T13:21:15;99041.75;;;4.37;100.00
10646;BME280;5371;49.782;9.932;2022-11-20T13:23:44;99036.91;;;4.48;100.00
10646;BME280;5371;49.782;9.932;2022-11-20T13:26:19;99038.56;;;4.69;100.00
10646;BME280;5371;49.782;9.932;2022-11-20T13:28:48;99030.19;;;4.64;100.00
10646;BME280;5371;49.782;9.932;2022-11-20T13:31:30;99030.00;;;4.67;100.00
10646;BME280;5371;49.782;9.932;2022-11-20T13:33:59;99030.31;;;4.80;100.00